Time;durP1;ratioP1;P1;durP2;ratioP2;P2;SDS_P1;SDS_P2;PMS_P1;PMS_P2;Temp;Humidity;BMP_temperature;BMP_pressure;BME280_temperature;BME280_humidity;BME280_pressure;Samples;Min_cycle;Max_cycle;Signal;HPM_P1;HPM_P2
2023/06/14 00:02:10;;;;;;;4.90;3.90;;;;;;;11.22;nan;99011.34;5056629;28;20192;-78
2023/06/14 00:04:38;;;;;;;5.33;4.10;;;;;;;11.23;nan;99016.47;5053741;28;20191;-79
2023/06/14 00:07:08;;;;;;;5.23;4.43;;;;;;;11.21;nan;99015.06;5064193;28;20205;-78
2023/06/14 00:09:35;;;;;;;4.63;4.17;;;;;;;11.24;nan;99017.28;5052525;28;20266;-79
2023/06/14 00:12:02;;;;;;;5.10;4.70;;;;;;;11.23;nan;99013.78;5058438;28;20201;-79
2023/06/14 00:14:28;;;;;;;5.13;3.97;;;;;;;11.23;nan;99015.66;5075338;28;20185;-79
2023/06/14 00:16:58;;;;;;;4.67;4.13;;;;;;;11.25;nan;99013.53;5063078;28;20216;-79
2023/06/14 00:19:25;;;;;;;4.80;4.40;;;;;;;11.27;nan;99019.47;5058359;28;20196;-79
2023/06/14 00:21:52;;;;;;;4.63;4.20;;;;;;;11.30;nan;99022.50;5058448;28;20717;-78
2023/06/14 00:24:19;;;;;;;4.43;4.03;;;;;;;11.31;nan;99026.81;5074907;28;20197;-79
2023/06/14 00:26:49;;;;;;;4.40;4.00;;;;;;;11.30;nan;99025.19;5068697;28;20215;-79
2023/06/14 00:29:16;;;;;;;4.67;4.07;;;;;;;11.34;nan;99022.81;5062570;28;20187;-79
2023/06/14 00:31:43;;;;;;;4.50;4.10;;;;;;;11.37;nan;99025.06;5069634;28;20661;-79
2023/06/14 00:34:10;;;;;;;4.67;4.27;;;;;;;11.33;nan;99019.34;5061548;28;20185;-79
2023/06/14 00:36:39;;;;;;;5.10;4.60;;;;;;;11.33;nan;99022.03;5065099;28;20280;-79
2023/06/14 00:39:06;;;;;;;5.13;4.63;;;;;;;11.34;nan;99026.31;5051315;28;20187;-79
2023/06/14 00:41:34;;;;;;;5.10;4.70;;;;;;;11.28;nan;99019.25;5063858;28;20198;-79
2023/06/14 00:44:01;;;;;;;5.50;5.00;;;;;;;11.27;nan;99024.84;5064376;28;20280;-79
2023/06/14 00:46:28;;;;;;;5.20;4.70;;;;;;;11.24;nan;99019.97;5064331;28;20197;-79
2023/06/14 00:48:56;;;;;;;5.23;4.73;;;;;;;11.25;nan;99024.25;5055577;28;20218;-79
2023/06/14 00:51:23;;;;;;;5.60;4.93;;;;;;;11.19;nan;99017.19;5063193;28;20186;-79
2023/06/14 00:53:50;;;;;;;6.93;4.80;;;;;;;11.14;nan;99014.41;5055198;28;20218;-79
2023/06/14 00:56:20;;;;;;;5.87;4.90;;;;;;;11.11;nan;99015.69;5062564;28;20197;-79
2023/06/14 00:58:50;;;;;;;6.33;5.13;;;;;;;11.07;nan;99019.06;5052979;28;20240;-79
2023/06/14 01:01:17;;;;;;;5.07;4.63;;;;;;;10.98;nan;99010.59;5063704;28;20201;-79
2023/06/14 01:03:45;;;;;;;4.87;4.47;;;;;;;10.90;nan;99005.59;5064465;28;20280;-79
2023/06/14 01:06:35;;;;;;;4.90;4.40;;;;;;;10.94;nan;99012.94;5069627;28;20190;-80
2023/06/14 01:09:28;;;;;;;5.83;5.23;;;;;;;10.87;nan;99004.19;5069461;28;20264;-79
2023/06/14 01:12:25;;;;;;;5.40;4.90;;;;;;;10.83;nan;99003.03;5053891;28;20189;-79
2023/06/14 01:14:53;;;;;;;6.23;4.77;;;;;;;10.83;nan;99002.22;5056706;28;20205;-79
2023/06/14 01:17:23;;;;;;;5.23;4.53;;;;;;;10.82;nan;99000.63;5043582;28;20251;-80
2023/06/14 01:19:57;;;;;;;5.47;4.97;;;;;;;10.80;nan;98997.34;5045741;28;20727;-78
2023/06/14 01:22:26;;;;;;;4.77;4.37;;;;;;;10.81;nan;98993.63;5042043;28;20655;-79
2023/06/14 01:24:55;;;;;;;5.37;4.87;;;;;;;10.83;nan;98988.81;5072566;28;20209;-79
2023/06/14 01:27:28;;;;;;;5.97;4.50;;;;;;;10.88;nan;98991.63;5061888;28;20193;-79
2023/06/14 01:29:56;;;;;;;5.60;4.53;;;;;;;10.90;nan;98986.84;5066468;28;20196;-80
2023/06/14 01:32:24;;;;;;;5.23;4.47;;;;;;;10.86;nan;98981.16;5072838;28;20225;-79
2023/06/14 01:34:52;;;;;;;5.03;4.53;;;;;;;10.91;nan;98983.13;5038269;28;20280;-79
2023/06/14 01:37:20;;;;;;;5.53;5.03;;;;;;;10.92;nan;98987.41;5057593;28;20200;-79
2023/06/14 01:39:49;;;;;;;5.30;4.80;;;;;;;10.94;nan;98974.59;5064493;28;20185;-79
2023/06/14 01:42:18;;;;;;;5.43;4.93;;;;;;;10.94;nan;98986.13;5044951;28;20225;-79
2023/06/14 01:44:46;;;;;;;5.67;5.13;;;;;;;10.98;nan;98984.59;5058645;28;20782;-79
2023/06/14 01:47:14;;;;;;;5.40;4.90;;;;;;;11.03;nan;98989.25;5054624;28;20206;-79
2023/06/14 01:49:41;;;;;;;6.10;4.30;;;;;;;11.09;nan;98987.50;5054182;28;20235;-79
2023/06/14 01:52:09;;;;;;;5.00;4.60;;;;;;;11.16;nan;98988.16;5054790;28;20197;-78
2023/06/14 01:54:41;;;;;;;5.00;4.50;;;;;;;11.18;nan;98986.88;5055171;28;20205;-79
2023/06/14 01:57:10;;;;;;;4.97;4.57;;;;;;;11.23;nan;98992.34;5061399;28;20652;-78
2023/06/14 01:59:37;;;;;;;5.63;4.80;;;;;;;11.31;nan;99000.00;5061422;28;20197;-78
2023/06/14 02:02:04;;;;;;;5.47;4.97;;;;;;;11.33;nan;99007.81;5072012;28;20189;-79
2023/06/14 02:04:31;;;;;;;5.07;4.40;;;;;;;11.38;nan;99006.00;5059585;28;20204;-79
2023/06/14 02:06:58;;;;;;;5.60;5.07;;;;;;;11.41;nan;99002.06;5070318;28;20225;-79
2023/06/14 02:09:25;;;;;;;6.63;4.83;;;;;;;11.46;nan;98986.88;5053683;28;20228;-78
2023/06/14 02:11:53;;;;;;;5.27;4.73;;;;;;;11.60;nan;98994.63;5049051;28;20247;-80
2023/06/14 02:14:21;;;;;;;5.87;5.00;;;;;;;11.49;nan;99002.47;5065229;28;20610;-79
2023/06/14 02:16:50;;;;;;;5.00;4.60;;;;;;;11.49;nan;99002.47;5064023;28;20205;-79
2023/06/14 02:19:19;;;;;;;5.30;4.80;;;;;;;11.57;nan;99008.53;5059258;28;20205;-78
2023/06/14 02:21:46;;;;;;;5.27;4.37;;;;;;;11.59;nan;99009.91;5066070;28;20198;-79
2023/06/14 02:24:15;;;;;;;5.93;4.67;;;;;;;11.62;nan;99014.00;5056374;28;20194;-80
2023/06/14 02:26:42;;;;;;;7.20;5.37;;;;;;;11.65;nan;99022.38;5065698;28;20190;-80
2023/06/14 02:29:14;;;;;;;5.67;5.10;;;;;;;11.67;nan;99025.59;5057125;28;20237;-79
2023/06/14 02:31:46;;;;;;;5.33;4.83;;;;;;;11.75;nan;99027.13;5061207;28;20212;-79
2023/06/14 02:34:14;;;;;;;5.40;4.90;;;;;;;11.80;nan;99025.31;5067057;28;20197;-80
2023/06/14 02:36:41;;;;;;;5.10;4.70;;;;;;;11.86;nan;99031.59;5065375;28;20195;-79
2023/06/14 02:39:10;;;;;;;5.40;4.83;;;;;;;11.85;nan;99028.09;5047125;28;20215;-79
2023/06/14 02:41:37;;;;;;;5.23;4.73;;;;;;;11.86;nan;99032.41;5057619;28;20193;-78
2023/06/14 02:44:04;;;;;;;4.93;4.43;;;;;;;11.90;nan;99032.75;5064502;28;20197;-79
2023/06/14 02:46:31;;;;;;;5.23;4.60;;;;;;;11.98;nan;99029.69;5073511;28;20201;-79
2023/06/14 02:48:59;;;;;;;5.13;4.63;;;;;;;11.97;nan;99032.59;5056076;28;20207;-79
2023/06/14 02:51:26;;;;;;;5.37;4.80;;;;;;;11.92;nan;99025.28;5052985;28;20195;-78
2023/06/14 02:53:52;;;;;;;5.07;4.57;;;;;;;11.94;nan;99027.72;5054540;28;20192;-79
2023/06/14 02:56:20;;;;;;;4.60;4.20;;;;;;;11.93;nan;99018.84;5036348;28;20191;-78
2023/06/14 02:58:48;;;;;;;5.93;5.33;;;;;;;11.89;nan;99015.03;5052846;28;20198;-79
2023/06/14 03:01:16;;;;;;;7.00;4.83;;;;;;;11.92;nan;99019.91;5052943;28;20689;-79
2023/06/14 03:03:44;;;;;;;4.67;4.23;;;;;;;11.94;nan;99022.34;5054629;28;20231;-81
2023/06/14 03:06:13;;;;;;;6.10;4.93;;;;;;;11.94;nan;99017.81;5056946;28;20186;-81
2023/06/14 03:08:43;;;;;;;6.37;4.90;;;;;;;11.90;nan;99022.81;5057161;28;20642;-79
2023/06/14 03:11:14;;;;;;;5.83;5.17;;;;;;;11.98;nan;99026.19;5040848;28;20250;-80
2023/06/14 03:13:43;;;;;;;5.03;4.63;;;;;;;11.98;nan;99018.13;5056359;28;20213;-79
2023/06/14 03:16:10;;;;;;;5.50;4.70;;;;;;;11.98;nan;99016.25;5055190;28;20666;-79
2023/06/14 03:18:39;;;;;;;6.03;5.30;;;;;;;12.02;nan;99012.03;5022309;28;20577;-79
2023/06/14 03:21:07;;;;;;;5.63;5.03;;;;;;;12.07;nan;99006.75;5055382;28;20198;-79
2023/06/14 03:23:33;;;;;;;5.37;4.87;;;;;;;12.03;nan;99007.47;5052780;28;20651;-78
2023/06/14 03:26:02;;;;;;;5.33;4.83;;;;;;;12.07;nan;99016.66;5052212;28;20279;-78
2023/06/14 03:28:29;;;;;;;5.40;5.00;;;;;;;12.07;nan;99014.78;5053505;28;20202;-78
2023/06/14 03:30:57;;;;;;;5.27;4.77;;;;;;;12.09;nan;99020.72;5052538;28;20254;-79
2023/06/14 03:33:25;;;;;;;5.30;4.80;;;;;;;12.14;nan;99023.47;5053616;28;20262;-78
2023/06/14 03:35:53;;;;;;;5.67;5.10;;;;;;;12.22;nan;99033.03;5053297;28;20222;-78
2023/06/14 03:38:20;;;;;;;5.40;4.90;;;;;;;12.23;nan;99032.75;5052958;28;20186;-78
2023/06/14 03:40:48;;;;;;;5.77;5.17;;;;;;;12.36;nan;99034.31;5053533;28;20188;-78
2023/06/14 03:43:15;;;;;;;5.17;4.77;;;;;;;12.40;nan;99037.31;5052894;28;20187;-78
2023/06/14 03:45:42;;;;;;;6.83;5.07;;;;;;;12.58;nan;99039.75;5052692;28;20192;-78
2023/06/14 03:48:09;;;;;;;5.70;5.20;;;;;;;12.76;nan;99039.47;5053844;28;20688;-79
2023/06/14 03:50:40;;;;;;;7.40;5.27;;;;;;;12.78;nan;99046.22;5053290;28;20191;-78
2023/06/14 03:53:07;;;;;;;5.63;5.13;;;;;;;12.86;nan;99054.91;5054637;28;20576;-78
2023/06/14 03:55:37;;;;;;;5.53;5.03;;;;;;;12.93;nan;99061.75;5052218;28;20204;-78
2023/06/14 03:58:31;;;;;;;5.07;4.57;;;;;;;13.13;nan;99069.28;5058936;28;20187;-78
2023/06/14 04:00:59;;;;;;;5.20;4.80;;;;;;;13.31;nan;99068.97;5060275;28;20193;-78
2023/06/14 04:03:29;;;;;;;5.00;4.60;;;;;;;13.39;nan;99063.16;5072069;28;20269;-78
2023/06/14 04:05:59;;;;;;;5.40;4.90;;;;;;;13.58;nan;99069.84;5059462;28;20200;-79
2023/06/14 04:08:26;;;;;;;6.97;4.77;;;;;;;13.69;nan;99065.38;5056960;28;20200;-78
2023/06/14 04:10:54;;;;;;;5.03;4.60;;;;;;;13.81;nan;99052.56;5068884;28;20230;-78
2023/06/14 04:13:21;;;;;;;5.33;4.83;;;;;;;13.81;nan;99062.56;5064564;28;20200;-78
2023/06/14 04:15:48;;;;;;;6.53;4.87;;;;;;;13.91;nan;99063.44;5068736;28;20185;-79
2023/06/14 04:18:21;;;;;;;7.93;4.87;;;;;;;14.04;nan;99067.63;5044757;28;20261;-79
2023/06/14 04:20:50;;;;;;;5.63;4.80;;;;;;;14.11;nan;99070.91;5058885;28;20560;-79
2023/06/14 04:23:18;;;;;;;5.73;4.60;;;;;;;14.29;nan;99080.50;5068883;28;20192;-79
2023/06/14 04:25:47;;;;;;;5.13;4.73;;;;;;;14.73;nan;99089.22;5060419;28;20229;-79
2023/06/14 04:28:15;;;;;;;5.73;4.40;;;;;;;14.90;nan;99087.19;5057963;28;20214;-78
2023/06/14 04:30:44;;;;;;;5.47;4.73;;;;;;;14.87;nan;99091.22;5054682;28;20232;-79
2023/06/14 04:33:13;;;;;;;4.97;4.57;;;;;;;14.89;nan;99096.34;5066856;28;20233;-78
2023/06/14 04:35:41;;;;;;;5.60;4.70;;;;;;;15.02;nan;99095.91;5069315;28;20189;-78
2023/06/14 04:38:09;;;;;;;5.30;4.70;;;;;;;15.96;nan;99100.34;5075023;28;20279;-78
2023/06/14 04:40:42;;;;;;;5.00;4.60;;;;;;;16.49;nan;99101.72;5075041;28;20733;-78
2023/06/14 04:43:17;;;;;;;5.23;4.73;;;;;;;16.63;nan;99102.84;5075275;28;20208;-79
2023/06/14 04:45:46;;;;;;;6.30;4.77;;;;;;;16.72;nan;99103.91;5074783;28;20204;-78
2023/06/14 04:48:13;;;;;;;5.83;4.90;;;;;;;16.89;nan;99103.63;5073842;28;20289;-78
2023/06/14 04:50:41;;;;;;;5.13;4.60;;;;;;;17.18;nan;99112.75;5058908;28;20287;-79
2023/06/14 04:53:08;;;;;;;5.47;5.07;;;;;;;17.41;nan;99106.72;5053424;28;20213;-78
2023/06/14 04:55:35;;;;;;;6.67;4.80;;;;;;;17.75;nan;99103.38;5057601;28;20674;-79
2023/06/14 04:58:04;;;;;;;5.40;4.90;;;;;;;17.99;nan;99107.84;5056840;28;20198;-79
2023/06/14 05:00:31;;;;;;;5.63;5.00;;;;;;;18.08;nan;99089.06;5052420;28;20236;-78
2023/06/14 05:02:58;;;;;;;7.60;5.40;;;;;;;17.46;nan;99081.53;5053074;28;20194;-78
2023/06/14 05:05:25;;;;;;;6.93;5.40;;;;;;;17.14;nan;99079.22;5054305;28;20217;-78
2023/06/14 05:07:52;;;;;;;5.83;5.10;;;;;;;16.92;nan;99076.84;5071252;28;20212;-78
2023/06/14 05:10:19;;;;;;;6.90;4.83;;;;;;;16.60;nan;99095.28;5072150;28;20231;-78
2023/06/14 05:12:47;;;;;;;7.77;4.80;;;;;;;16.92;nan;99103.91;5072573;28;20567;-78
2023/06/14 05:15:16;;;;;;;7.00;4.87;;;;;;;16.71;nan;99094.16;5060259;28;20683;-78
2023/06/14 05:17:47;;;;;;;7.07;4.80;;;;;;;16.93;nan;99110.94;5067065;28;20240;-78
2023/06/14 05:20:15;;;;;;;7.40;4.90;;;;;;;17.16;nan;99109.53;5040628;28;20197;-78
2023/06/14 05:22:42;;;;;;;6.20;4.87;;;;;;;17.46;nan;99108.59;5063232;28;20667;-78
2023/06/14 05:25:09;;;;;;;6.10;5.07;;;;;;;17.61;nan;99116.69;5063584;28;20213;-78
2023/06/14 05:27:37;;;;;;;5.13;4.57;;;;;;;17.82;nan;99120.97;5065986;28;20188;-79
2023/06/14 05:30:04;;;;;;;5.47;4.97;;;;;;;18.09;nan;99119.72;5059880;28;20205;-78
2023/06/14 05:32:31;;;;;;;5.57;4.90;;;;;;;18.26;nan;99117.41;5061690;28;20261;-79
2023/06/14 05:34:58;;;;;;;5.37;4.57;;;;;;;18.42;nan;99125.19;5056753;28;20205;-79
2023/06/14 05:37:25;;;;;;;5.00;4.60;;;;;;;18.61;nan;99128.03;5052249;28;20197;-78
2023/06/14 05:39:52;;;;;;;6.43;4.90;;;;;;;18.72;nan;99126.84;5062177;28;20189;-78
2023/06/14 05:42:19;;;;;;;4.93;4.47;;;;;;;18.78;nan;99133.84;5059610;28;20201;-78
2023/06/14 05:44:45;;;;;;;5.43;4.93;;;;;;;18.86;nan;99137.84;5064163;28;20201;-78
2023/06/14 05:47:12;;;;;;;5.80;5.30;;;;;;;18.85;nan;99137.03;5061913;28;20190;-79
2023/06/14 05:49:39;;;;;;;7.30;4.80;;;;;;;19.02;nan;99133.91;5068656;28;20278;-80
2023/06/14 05:52:07;;;;;;;5.60;5.10;;;;;;;19.16;nan;99131.31;5070538;28;20247;-78
2023/06/14 05:54:34;;;;;;;6.63;5.17;;;;;;;19.34;nan;99131.41;5056029;28;20215;-78
2023/06/14 05:57:01;;;;;;;6.20;5.43;;;;;;;19.58;nan;99130.63;5053076;28;20195;-79
2023/06/14 05:59:29;;;;;;;5.73;5.23;;;;;;;19.73;nan;99130.44;5055720;28;20203;-79
2023/06/14 06:01:55;;;;;;;6.00;5.07;;;;;;;19.79;nan;99123.81;5051093;28;20224;-79
2023/06/14 06:04:23;;;;;;;6.77;5.17;;;;;;;19.95;nan;99140.75;5065283;28;20256;-79
2023/06/14 06:06:50;;;;;;;5.73;5.20;;;;;;;20.12;nan;99133.69;5072157;28;20202;-79
2023/06/14 06:09:16;;;;;;;5.80;5.17;;;;;;;20.31;nan;99141.06;5058615;28;20269;-79
2023/06/14 06:11:43;;;;;;;5.63;5.13;;;;;;;20.33;nan;99136.97;5059691;28;20203;-78
2023/06/14 06:14:18;;;;;;;6.67;5.20;;;;;;;20.43;nan;99127.84;5059400;28;20583;-79
2023/06/14 06:16:47;;;;;;;5.70;5.20;;;;;;;20.34;nan;99135.88;5054398;28;20224;-81
2023/06/14 06:19:13;;;;;;;5.43;4.80;;;;;;;20.41;nan;99128.13;5049375;28;20202;-79
2023/06/14 06:21:40;;;;;;;6.27;5.17;;;;;;;20.51;nan;99140.75;5051518;28;20649;-79
2023/06/14 06:24:07;;;;;;;5.47;4.97;;;;;;;20.52;nan;99139.66;5050202;28;20603;-78
2023/06/14 06:26:34;;;;;;;6.43;5.50;;;;;;;20.69;nan;99147.28;5063373;28;20198;-79
2023/06/14 06:29:01;;;;;;;6.17;5.57;;;;;;;20.65;nan;99142.44;5052893;28;20258;-79
2023/06/14 06:31:28;;;;;;;6.23;5.43;;;;;;;20.60;nan;99141.72;5048060;28;20188;-79
2023/06/14 06:33:55;;;;;;;6.23;5.53;;;;;;;20.67;nan;99142.13;5042881;28;20242;-79
2023/06/14 06:36:22;;;;;;;6.43;5.53;;;;;;;20.48;nan;99152.25;5047160;28;20204;-80
2023/06/14 06:38:49;;;;;;;5.87;5.37;;;;;;;20.51;nan;99144.28;5056504;28;20195;-79
2023/06/14 06:41:15;;;;;;;6.10;5.50;;;;;;;20.53;nan;99152.97;5062900;28;20213;-79
2023/06/14 06:43:42;;;;;;;6.73;5.27;;;;;;;20.35;nan;99155.69;5059117;28;20681;-80
2023/06/14 06:46:09;;;;;;;5.43;4.93;;;;;;;20.63;nan;99150.06;5054653;28;20200;-79
2023/06/14 06:48:36;;;;;;;5.50;4.73;;;;;;;20.85;nan;99149.47;5048036;28;20646;-79
2023/06/14 06:51:02;;;;;;;5.00;4.50;;;;;;;21.04;nan;99149.41;5046338;28;20674;-80
2023/06/14 06:53:29;;;;;;;4.80;4.30;;;;;;;21.13;nan;99152.25;5056343;28;20211;-78
2023/06/14 06:56:07;;;;;;;4.67;4.27;;;;;;;21.29;nan;99151.69;5036405;28;20211;-79
2023/06/14 06:58:34;;;;;;;4.40;4.00;;;;;;;21.46;nan;99151.88;5040904;28;20211;-78
2023/06/14 07:01:00;;;;;;;4.30;3.73;;;;;;;21.67;nan;99151.50;5042332;28;20182;-78
2023/06/14 07:03:27;;;;;;;5.13;4.17;;;;;;;21.57;nan;99144.34;5038092;28;20188;-79
2023/06/14 07:05:54;;;;;;;4.97;4.27;;;;;;;21.36;nan;99141.22;5051685;28;20819;-79
2023/06/14 07:08:21;;;;;;;5.20;4.70;;;;;;;21.32;nan;99153.78;5050150;28;20194;-79
2023/06/14 07:10:48;;;;;;;5.73;4.40;;;;;;;21.40;nan;99155.03;5043545;28;20233;-79
2023/06/14 07:13:15;;;;;;;6.10;4.70;;;;;;;21.09;nan;99166.44;5048095;28;20304;-78
2023/06/14 07:15:41;;;;;;;4.90;4.50;;;;;;;21.16;nan;99168.00;5038001;28;20193;-79
2023/06/14 07:18:08;;;;;;;5.03;4.43;;;;;;;21.71;nan;99171.59;5049458;28;20614;-79
2023/06/14 07:20:38;;;;;;;5.00;4.40;;;;;;;22.12;nan;99163.38;5048025;28;20215;-78
2023/06/14 07:23:05;;;;;;;4.03;3.73;;;;;;;22.23;nan;99171.06;5049849;28;20274;-79
2023/06/14 07:25:32;;;;;;;6.03;4.50;;;;;;;22.35;nan;99170.50;5047362;28;20205;-78
2023/06/14 07:27:59;;;;;;;6.20;4.20;;;;;;;22.10;nan;99173.81;5047676;28;20193;-79
2023/06/14 07:30:26;;;;;;;5.40;4.00;;;;;;;22.40;nan;99173.13;5048288;28;20699;-79
2023/06/14 07:32:54;;;;;;;5.70;4.00;;;;;;;22.77;nan;99175.53;5047264;28;20197;-79
2023/06/14 07:35:21;;;;;;;4.32;3.70;;;;;;;22.92;nan;99171.63;5050889;28;20193;-78
2023/06/14 07:37:48;;;;;;;5.77;3.70;;;;;;;22.94;nan;99172.13;5059227;28;20703;-79
2023/06/14 07:40:14;;;;;;;5.35;3.92;;;;;;;23.06;nan;99172.34;5053089;28;20193;-79
2023/06/14 07:42:41;;;;;;;4.00;3.70;;;;;;;23.18;nan;99169.06;5052883;28;20188;-79
2023/06/14 07:45:09;;;;;;;3.78;3.40;;;;;;;23.23;nan;99167.00;5054923;28;20534;-78
2023/06/14 07:47:36;;;;;;;5.53;3.75;;;;;;;23.07;nan;99173.97;5060414;28;20197;-78
2023/06/14 07:50:03;;;;;;;5.32;3.90;;;;;;;23.03;nan;99175.72;5058778;28;20201;-79
2023/06/14 07:52:31;;;;;;;4.15;3.70;;;;;;;23.43;nan;99171.09;5050639;28;20216;-78
2023/06/14 07:54:58;;;;;;;4.25;3.70;;;;;;;23.55;nan;99176.03;5052166;28;20701;-79
2023/06/14 07:57:25;;;;;;;4.78;4.35;;;;;;;22.99;nan;99184.84;5049900;28;20645;-78
2023/06/14 07:59:52;;;;;;;5.22;4.10;;;;;;;23.17;nan;99179.19;5041970;28;20193;-78
2023/06/14 08:02:19;;;;;;;4.38;3.55;;;;;;;23.45;nan;99176.28;5053253;28;20653;-78
2023/06/14 08:04:48;;;;;;;5.72;4.05;;;;;;;23.41;nan;99178.00;5054703;28;20198;-78
2023/06/14 08:07:15;;;;;;;4.18;3.55;;;;;;;23.18;nan;99180.00;5052212;28;20205;-78
2023/06/14 08:09:41;;;;;;;5.05;3.70;;;;;;;23.25;nan;99183.88;5057990;28;20688;-78
2023/06/14 08:12:09;;;;;;;4.50;3.72;;;;;;;23.16;nan;99184.94;5061648;28;20595;-79
2023/06/14 08:14:36;;;;;;;5.80;3.70;;;;;;;23.41;nan;99178.81;5050453;28;20228;-78
2023/06/14 08:17:03;;;;;;;5.40;3.80;;;;;;;23.90;nan;99185.13;5059061;28;20184;-79
2023/06/14 08:19:30;;;;;;;5.20;3.83;;;;;;;24.09;nan;99180.19;5060005;28;20196;-79
2023/06/14 08:21:58;;;;;;;7.88;3.20;;;;;;;23.94;nan;99183.38;5059925;28;20189;-78
2023/06/14 08:24:24;;;;;;;8.48;3.60;;;;;;;23.91;nan;99184.81;5057990;28;20194;-78
2023/06/14 08:26:51;;;;;;;4.05;3.58;;;;;;;23.71;nan;99185.41;5059904;28;20199;-79
2023/06/14 08:29:18;;;;;;;6.30;3.47;;;;;;;24.14;nan;99191.00;5051375;28;20213;-80
2023/06/14 08:31:46;;;;;;;4.68;3.50;;;;;;;23.86;nan;99184.97;5055537;28;20245;-79
2023/06/14 08:34:13;;;;;;;4.85;3.60;;;;;;;24.09;nan;99197.41;5060018;28;20538;-79
2023/06/14 08:36:40;;;;;;;3.72;3.10;;;;;;;22.64;nan;99184.56;5050229;28;20260;-79
2023/06/14 08:39:08;;;;;;;8.90;3.17;;;;;;;23.25;nan;99175.69;5058470;28;20675;-79
2023/06/14 08:41:35;;;;;;;4.15;3.55;;;;;;;22.19;nan;99186.44;5051633;28;20229;-79
2023/06/14 08:44:03;;;;;;;3.22;2.92;;;;;;;22.82;nan;99191.78;5055891;28;20193;-79
2023/06/14 08:46:33;;;;;;;3.20;3.00;;;;;;;23.24;nan;99189.66;5052878;28;20189;-79
2023/06/14 08:49:01;;;;;;;3.40;3.10;;;;;;;23.32;nan;99191.63;5051711;28;20203;-79
2023/06/14 08:51:34;;;;;;;3.88;3.03;;;;;;;23.63;nan;99195.19;5059811;28;20201;-78
2023/06/14 08:54:01;;;;;;;3.60;3.15;;;;;;;23.72;nan;99189.75;5060883;28;20216;-78
2023/06/14 08:56:29;;;;;;;3.45;3.00;;;;;;;24.04;nan;99199.50;5059542;28;20569;-78
2023/06/14 08:59:03;;;;;;;3.78;2.88;;;;;;;24.39;nan;99200.41;5061502;28;20664;-79
2023/06/14 09:01:34;;;;;;;3.60;3.30;;;;;;;24.66;nan;99200.09;5057101;28;20677;-79
2023/06/14 09:04:02;;;;;;;4.75;3.10;;;;;;;24.87;nan;99197.53;5060236;28;20668;-79
2023/06/14 09:06:29;;;;;;;3.15;2.85;;;;;;;25.26;nan;99194.56;5065936;28;20223;-78
2023/06/14 09:08:57;;;;;;;3.10;2.80;;;;;;;25.24;nan;99194.06;5057160;28;20326;-78
2023/06/14 09:11:24;;;;;;;3.50;3.10;;;;;;;25.20;nan;99195.03;5060504;28;20305;-78
2023/06/14 09:13:50;;;;;;;3.95;3.20;;;;;;;25.25;nan;99189.38;5057827;28;20194;-79
2023/06/14 09:16:17;;;;;;;3.58;3.28;;;;;;;25.34;nan;99196.47;5054533;28;20199;-78
2023/06/14 09:18:47;;;;;;;3.47;3.17;;;;;;;25.02;nan;99201.69;5054510;28;20205;-78
2023/06/14 09:21:16;;;;;;;3.30;3.10;;;;;;;24.55;nan;99194.13;5055798;28;20196;-79
2023/06/14 09:23:47;;;;;;;4.97;3.30;;;;;;;24.02;nan;99190.81;5054236;28;20186;-79
2023/06/14 09:26:16;;;;;;;4.60;3.35;;;;;;;24.34;nan;99198.63;5067044;28;20212;-78
2023/06/14 09:28:44;;;;;;;3.53;3.20;;;;;;;24.94;nan;99189.63;5065590;28;20187;-79
2023/06/14 09:31:18;;;;;;;3.67;2.92;;;;;;;25.54;nan;99181.25;5052260;28;20295;-79
2023/06/14 09:33:49;;;;;;;4.72;2.95;;;;;;;25.58;nan;99193.19;5043979;28;21006;-78
2023/06/14 09:36:17;;;;;;;4.93;3.13;;;;;;;26.26;nan;99186.56;5055454;28;20189;-79
2023/06/14 09:38:57;;;;;;;2.90;2.58;;;;;;;26.65;nan;99192.72;5049973;28;20196;-79
2023/06/14 09:41:39;;;;;;;2.92;2.72;;;;;;;26.72;nan;99190.25;5047576;28;20770;-79
2023/06/14 09:44:07;;;;;;;3.20;2.90;;;;;;;27.41;nan;99186.81;5054113;28;20193;-78
2023/06/14 09:46:37;;;;;;;4.65;2.67;;;;;;;27.83;nan;99190.22;5049167;28;20209;-78
2023/06/14 09:49:05;;;;;;;3.03;2.80;;;;;;;28.00;nan;99182.50;5055414;28;20190;-80
2023/06/14 09:51:33;;;;;;;3.08;2.38;;;;;;;28.04;nan;99177.91;5046196;28;20193;-79
2023/06/14 09:54:04;;;;;;;2.92;2.72;;;;;;;27.90;nan;99190.44;5053869;28;20584;-78
2023/06/14 09:56:37;;;;;;;2.92;2.60;;;;;;;27.90;nan;99176.69;5043000;28;20209;-78
2023/06/14 09:59:07;;;;;;;2.85;2.38;;;;;;;28.27;nan;99181.03;5024680;28;20244;-80
2023/06/14 10:01:35;;;;;;;2.70;2.40;;;;;;;28.52;nan;99179.00;5046643;28;20193;-78
2023/06/14 10:04:04;;;;;;;2.90;2.70;;;;;;;28.49;nan;99187.16;5054864;28;20182;-82
2023/06/14 10:06:39;;;;;;;3.70;2.72;;;;;;;28.29;nan;99175.16;5054544;28;20198;-78
2023/06/14 10:09:08;;;;;;;3.03;2.80;;;;;;;28.66;nan;99179.41;5056224;28;20259;-78
2023/06/14 10:11:36;;;;;;;3.30;3.00;;;;;;;28.84;nan;99178.00;5050195;28;20189;-81
2023/06/14 10:14:05;;;;;;;3.13;2.83;;;;;;;28.77;nan;99171.50;5055588;28;20186;-78
2023/06/14 10:16:39;;;;;;;3.72;2.95;;;;;;;28.54;nan;99179.47;5044962;28;20215;-82
2023/06/14 10:19:21;;;;;;;2.60;2.40;;;;;;;27.84;nan;99170.59;5040400;28;20272;-79
2023/06/14 10:21:53;;;;;;;3.30;2.63;;;;;;;27.18;nan;99172.69;5052628;28;20208;-78
2023/06/14 10:24:27;;;;;;;2.90;2.60;;;;;;;27.55;nan;99168.88;5050202;28;20194;-81
2023/06/14 10:26:57;;;;;;;2.65;2.47;;;;;;;28.18;nan;99177.63;5049910;28;20280;-78
2023/06/14 10:29:26;;;;;;;3.08;2.80;;;;;;;27.30;nan;99163.63;5050868;28;20207;-80
2023/06/14 10:31:57;;;;;;;3.03;2.83;;;;;;;27.22;nan;99168.09;5052158;28;20193;-79
2023/06/14 10:34:26;;;;;;;2.78;2.58;;;;;;;27.37;nan;99172.94;5063219;28;20194;-79
2023/06/14 10:37:05;;;;;;;2.63;2.42;;;;;;;27.94;nan;99175.66;5060723;28;20194;-79
2023/06/14 10:39:42;;;;;;;3.22;2.78;;;;;;;28.95;nan;99174.75;5055665;28;20201;-79
2023/06/14 10:42:10;;;;;;;2.85;2.63;;;;;;;29.52;nan;99166.03;5048052;28;20316;-78
2023/06/14 10:44:37;;;;;;;3.13;2.85;;;;;;;29.87;nan;99161.38;5053548;28;20552;-79
2023/06/14 10:47:10;;;;;;;3.00;2.80;;;;;;;30.61;nan;99162.28;5063535;28;20282;-79
2023/06/14 10:49:41;;;;;;;2.70;2.50;;;;;;;30.98;nan;99160.66;5052665;28;20205;-80
2023/06/14 10:52:20;;;;;;;3.10;2.80;;;;;;;30.84;nan;99162.34;5064969;28;20686;-79
2023/06/14 10:54:59;;;;;;;2.70;2.50;;;;;;;30.05;nan;99156.31;5060348;28;20212;-78
2023/06/14 10:57:26;;;;;;;3.30;2.45;;;;;;;29.97;nan;99160.03;5057007;28;20200;-79
2023/06/14 10:59:52;;;;;;;3.25;2.60;;;;;;;29.70;nan;99159.78;5049140;28;20692;-79
2023/06/14 11:02:19;;;;;;;3.45;2.70;;;;;;;29.35;nan;99166.41;5046357;28;20219;-79
2023/06/14 11:04:51;;;;;;;2.67;2.47;;;;;;;29.13;nan;99167.75;5054591;28;20189;-78
2023/06/14 11:07:48;;;;;;;2.92;2.70;;;;;;;28.36;nan;99159.66;5051097;28;20229;-81
2023/06/14 11:10:31;;;;;;;2.90;2.53;;;;;;;27.89;nan;99159.38;5057639;28;20233;-80
2023/06/14 11:12:59;;;;;;;3.00;2.70;;;;;;;27.45;nan;99160.22;5056734;28;20190;-80
2023/06/14 11:15:33;;;;;;;3.03;2.45;;;;;;;27.03;nan;99157.63;5059238;28;20190;-80
2023/06/14 11:18:01;;;;;;;2.88;2.67;;;;;;;26.85;nan;99161.66;5057777;28;20193;-78
2023/06/14 11:20:30;;;;;;;3.45;2.78;;;;;;;26.43;nan;99160.91;5060121;28;20520;-79
2023/06/14 11:22:57;;;;;;;2.90;2.70;;;;;;;26.16;nan;99151.22;5057134;28;20348;-79
2023/06/14 11:25:26;;;;;;;3.38;2.88;;;;;;;25.95;nan;99163.31;5053976;28;20190;-79
2023/06/14 11:27:53;;;;;;;3.13;2.80;;;;;;;25.73;nan;99161.66;5052643;28;20190;-79
2023/06/14 11:30:20;;;;;;;3.83;3.30;;;;;;;25.48;nan;99159.78;5060738;28;20219;-78
2023/06/14 11:32:51;;;;;;;3.85;2.83;;;;;;;25.37;nan;99162.09;5055517;28;20208;-80
2023/06/14 11:35:23;;;;;;;3.17;2.47;;;;;;;24.92;nan;99168.00;5048655;28;20268;-80
2023/06/14 11:37:55;;;;;;;3.35;3.05;;;;;;;24.96;nan;99162.72;5055271;28;20247;-78
2023/06/14 11:40:26;;;;;;;3.35;2.90;;;;;;;24.75;nan;99148.03;5043410;28;20212;-79
2023/06/14 11:43:00;;;;;;;3.05;2.75;;;;;;;24.55;nan;99160.44;5043513;28;20211;-79
2023/06/14 11:45:27;;;;;;;2.72;2.50;;;;;;;24.81;nan;99150.28;5049704;28;20201;-78
2023/06/14 11:47:58;;;;;;;2.92;2.60;;;;;;;25.44;nan;99140.44;5062341;28;20189;-79
2023/06/14 11:50:26;;;;;;;3.85;2.72;;;;;;;25.84;nan;99141.75;5065183;28;20209;-79
2023/06/14 11:52:57;;;;;;;3.30;2.80;;;;;;;26.22;nan;99136.19;5068160;28;20197;-79
2023/06/14 11:55:24;;;;;;;2.78;2.58;;;;;;;26.83;nan;99144.69;5052817;28;20194;-79
2023/06/14 11:57:52;;;;;;;2.80;2.38;;;;;;;26.69;nan;99141.44;5048633;28;20196;-82
2023/06/14 12:00:21;;;;;;;3.28;2.58;;;;;;;26.73;nan;99140.44;5053634;28;20192;-78